Clayton Village, Mississippi
Current Conditions -  °F | °C
As of 11:45 AM on Monday 20 Oct 2014 (Local Time) from KGTR Reporting Station
Clear Clear  
Wind Chill: 72°   Ceiling: Unl
Heat Index: 72°   Visibility: 10mi
Dew Point: 50°   Wind: 6mph
Humidity: 46%   Direction: 330°NNW
Pressure: 30.1"   Gusts: NA
Location:  33.4256°N, 88.8438°W
Report Text: KGTR 201645Z 33005KT 10SM SKC 22/10 A3010
Loading
Personal Weather Stations






























Interactive Weather Map
Tropical Storm Tracking
New forecast layout! Learn more

10-Day Weather Forecast

Advertisements
Track Severe Weather on mobile